createdAt,value
2022-08-17T00:00:34.364Z,53.96
2022-08-17T00:03:10.413Z,54.48
2022-08-17T00:05:42.828Z,54.58
2022-08-17T00:08:13.078Z,54.07
2022-08-17T00:10:42.013Z,54.28
2022-08-17T00:13:16.616Z,53.60
2022-08-17T00:15:45.227Z,53.89
2022-08-17T00:19:02.140Z,54.17
2022-08-17T00:21:10.199Z,54.10
2022-08-17T00:23:47.766Z,54.66
2022-08-17T00:26:44.242Z,53.42
2022-08-17T00:29:08.041Z,53.59
2022-08-17T00:31:36.611Z,53.14
2022-08-17T00:34:05.481Z,53.56
2022-08-17T00:36:33.222Z,53.10
2022-08-17T00:39:03.438Z,53.93
2022-08-17T00:41:31.263Z,54.59
2022-08-17T00:44:02.635Z,54.79
2022-08-17T00:46:38.261Z,54.83
2022-08-17T00:49:09.086Z,55.17
2022-08-17T00:52:04.555Z,55.66
2022-08-17T00:54:43.682Z,55.91
2022-08-17T00:57:18.274Z,56.18
2022-08-17T01:00:03.330Z,56.90
2022-08-17T01:02:42.186Z,56.39
2022-08-17T01:05:23.734Z,56.30
2022-08-17T01:07:54.419Z,56.33
2022-08-17T01:10:58.730Z,57.15
2022-08-17T01:13:18.107Z,57.54
2022-08-17T01:16:16.101Z,58.28
2022-08-17T01:18:47.294Z,57.88
2022-08-17T01:21:29.283Z,58.47
2022-08-17T01:23:57.556Z,58.63
2022-08-17T01:26:26.158Z,58.01
2022-08-17T01:28:55.972Z,58.69
2022-08-17T01:31:29.412Z,58.81
2022-08-17T01:34:00.631Z,59.51
2022-08-17T01:36:29.826Z,60.13
2022-08-17T01:38:57.666Z,59.86
2022-08-17T01:41:26.138Z,59.93
2022-08-17T01:44:05.872Z,60.34
2022-08-17T01:46:36.618Z,59.90
2022-08-17T01:49:10.635Z,59.83
2022-08-17T01:51:39.343Z,59.47
2022-08-17T01:54:12.888Z,61.57
2022-08-17T01:56:47.069Z,61.59
2022-08-17T01:59:16.930Z,62.06
2022-08-17T02:01:45.623Z,62.13
2022-08-17T02:04:14.171Z,62.89
2022-08-17T02:06:52.475Z,62.48
2022-08-17T02:09:25.878Z,62.74
2022-08-17T02:11:56.651Z,62.41
2022-08-17T02:14:26.099Z,62.49
2022-08-17T02:16:57.502Z,62.57
2022-08-17T02:19:25.380Z,62.50
2022-08-17T02:21:54.476Z,62.38
2022-08-17T02:25:01.018Z,62.56
2022-08-17T02:27:15.346Z,62.86
2022-08-17T02:29:43.991Z,62.98
2022-08-17T02:32:27.428Z,63.51
2022-08-17T02:35:00.356Z,63.39
2022-08-17T02:37:29.975Z,63.15
2022-08-17T02:39:58.759Z,63.40
2022-08-17T02:42:34.012Z,62.89
2022-08-17T02:45:03.938Z,62.68
2022-08-17T02:47:31.882Z,62.87
2022-08-17T02:49:59.780Z,63.26
2022-08-17T02:52:42.565Z,62.87
2022-08-17T02:55:24.151Z,61.72
2022-08-17T02:57:52.875Z,61.39
2022-08-17T03:00:28.931Z,62.03
2022-08-17T03:02:57.448Z,62.45
2022-08-17T03:05:27.792Z,62.29
2022-08-17T03:07:56.043Z,62.49
2022-08-17T03:10:24.825Z,62.25
2022-08-17T03:12:53.709Z,62.77
2022-08-17T03:15:31.612Z,62.42
2022-08-17T03:18:01.064Z,62.86
2022-08-17T03:20:31.631Z,63.05
2022-08-17T03:23:02.945Z,62.61
2022-08-17T03:25:36.619Z,62.62
2022-08-17T03:28:07.700Z,62.17
2022-08-17T03:30:36.032Z,62.54
2022-08-17T03:33:06.980Z,63.12
2022-08-17T03:35:36.543Z,62.59
2022-08-17T03:38:05.407Z,62.34
2022-08-17T03:40:39.852Z,62.04
2022-08-17T03:43:22.763Z,63.19
2022-08-17T03:46:10.911Z,63.88
2022-08-17T03:49:13.944Z,62.82
2022-08-17T03:52:00.575Z,62.73
2022-08-17T03:54:47.079Z,63.44
2022-08-17T03:57:14.971Z,63.25
2022-08-17T03:59:43.228Z,63.85
2022-08-17T04:02:22.465Z,64.25
2022-08-17T04:04:51.177Z,63.69
2022-08-17T04:07:20.940Z,64.21
2022-08-17T04:09:49.126Z,64.45
2022-08-17T04:12:18.887Z,64.30
2022-08-17T04:14:51.976Z,63.66
2022-08-17T04:17:24.542Z,63.25
2022-08-17T04:19:53.311Z,63.16
2022-08-17T04:22:32.204Z,63.65
2022-08-17T04:25:18.658Z,63.85
2022-08-17T04:27:46.594Z,64.61
2022-08-17T04:30:15.471Z,65.12
2022-08-17T04:33:06.217Z,65.53
2022-08-17T04:35:42.178Z,64.74
2022-08-17T04:38:12.230Z,65.47
2022-08-17T04:40:58.707Z,64.47
2022-08-17T04:43:27.665Z,62.83
2022-08-17T04:46:01.501Z,62.43
2022-08-17T04:48:36.690Z,62.63
2022-08-17T04:51:15.036Z,62.74
2022-08-17T04:53:46.118Z,63.91
2022-08-17T04:56:23.556Z,62.64
2022-08-17T04:58:53.443Z,63.01
2022-08-17T05:01:24.572Z,63.42
2022-08-17T05:03:56.325Z,60.57
2022-08-17T05:06:27.749Z,60.21
2022-08-17T05:08:56.366Z,60.40
2022-08-17T05:11:26.175Z,60.17
2022-08-17T05:13:55.048Z,59.51
2022-08-17T05:16:25.733Z,59.12
2022-08-17T05:18:54.259Z,58.39
2022-08-17T05:21:23.312Z,58.54
2022-08-17T05:23:54.861Z,59.08
2022-08-17T05:26:27.217Z,58.59
2022-08-17T05:28:59.810Z,57.87
2022-08-17T05:31:36.273Z,58.31
2022-08-17T05:34:14.386Z,57.83
2022-08-17T05:36:44.469Z,58.51
2022-08-17T05:39:16.784Z,58.22
2022-08-17T05:41:48.418Z,57.85
2022-08-17T05:44:17.732Z,58.49
2022-08-17T05:46:52.351Z,57.57
2022-08-17T05:49:27.742Z,57.52
2022-08-17T05:52:10.613Z,58.32
2022-08-17T05:55:00.214Z,57.17
2022-08-17T05:57:43.509Z,57.08
2022-08-17T06:00:30.801Z,57.30
2022-08-17T06:03:04.563Z,57.69
2022-08-17T06:05:51.545Z,55.46
2022-08-17T06:08:31.769Z,54.67
2022-08-17T06:11:10.024Z,54.73
2022-08-17T06:13:45.024Z,55.04
2022-08-17T06:16:33.134Z,54.91
2022-08-17T06:19:06.697Z,55.04
2022-08-17T06:21:39.844Z,54.11
2022-08-17T06:24:37.125Z,53.82
2022-08-17T06:27:30.556Z,54.34
2022-08-17T06:30:29.255Z,55.49
2022-08-17T06:33:24.288Z,54.53
2022-08-17T06:35:54.911Z,53.79
2022-08-17T06:38:48.662Z,54.02
2022-08-17T06:41:38.898Z,54.35
2022-08-17T06:44:49.831Z,54.03
2022-08-17T06:47:31.871Z,55.15
2022-08-17T06:49:59.658Z,53.83
2022-08-17T06:52:45.355Z,53.76
2022-08-17T06:55:26.623Z,53.65
2022-08-17T06:58:09.397Z,52.82
2022-08-17T07:00:47.627Z,52.98
2022-08-17T07:03:24.538Z,52.62
2022-08-17T07:05:58.040Z,51.27
2022-08-17T07:08:55.338Z,51.74
2022-08-17T07:11:27.682Z,52.96
2022-08-17T07:14:36.749Z,52.16
2022-08-17T07:17:11.449Z,52.23
2022-08-17T07:19:41.452Z,51.48
2022-08-17T07:22:55.298Z,50.89
2022-08-17T07:25:21.683Z,51.21
2022-08-17T07:27:52.955Z,50.23
2022-08-17T07:30:28.108Z,50.40
2022-08-17T07:33:03.140Z,50.62
2022-08-17T07:35:31.228Z,51.31
2022-08-17T07:38:30.435Z,50.37
2022-08-17T07:41:02.165Z,50.62
2022-08-17T07:43:48.222Z,50.34
2022-08-17T07:49:31.829Z,49.23
2022-08-17T07:52:48.409Z,48.75
2022-08-17T07:54:52.600Z,48.59
2022-08-17T07:57:20.332Z,48.89
2022-08-17T08:00:00.016Z,49.01
2022-08-17T08:02:34.588Z,47.86
2022-08-17T08:05:29.948Z,48.02
2022-08-17T08:08:38.153Z,47.70
2022-08-17T08:11:15.601Z,48.41
2022-08-17T08:13:45.877Z,47.11
2022-08-17T08:16:27.709Z,48.25
2022-08-17T08:18:59.697Z,47.30
2022-08-17T08:21:47.314Z,47.68
2022-08-17T08:24:21.335Z,48.11
2022-08-17T08:27:00.798Z,48.34
2022-08-17T08:29:53.089Z,47.71
2022-08-17T08:32:37.225Z,47.12
2022-08-17T08:35:11.540Z,46.39
2022-08-17T08:37:45.168Z,46.50
2022-08-17T08:40:38.239Z,46.77
2022-08-17T08:43:08.809Z,47.23
2022-08-17T09:07:57.315Z,46.49
2022-08-17T09:11:00.401Z,46.78
2022-08-17T09:13:46.827Z,43.74
2022-08-17T09:16:36.247Z,45.18
2022-08-17T09:19:19.999Z,43.68
2022-08-17T09:21:59.955Z,42.45
2022-08-17T09:24:38.229Z,42.36
2022-08-17T09:27:15.278Z,40.82
2022-08-17T09:29:52.049Z,41.09
2022-08-17T09:32:33.409Z,42.24
2022-08-17T09:35:10.598Z,41.55
2022-08-17T09:37:58.518Z,42.37
2022-08-17T09:40:37.736Z,41.30
2022-08-17T09:43:36.551Z,40.54
2022-08-17T09:46:16.251Z,40.41
2022-08-17T09:48:55.496Z,41.38
2022-08-17T09:51:33.487Z,40.43
2022-08-17T09:54:41.123Z,40.84
2022-08-17T09:57:30.466Z,41.24
2022-08-17T10:00:12.476Z,39.65
2022-08-17T10:02:55.851Z,38.71
2022-08-17T10:05:27.548Z,38.27
2022-08-17T10:08:12.670Z,37.60
2022-08-17T10:11:08.481Z,36.40
2022-08-17T10:13:52.656Z,36.79
2022-08-17T10:16:31.162Z,36.68
2022-08-17T10:19:16.201Z,37.35
2022-08-17T10:22:14.999Z,37.24
2022-08-17T10:25:22.615Z,37.90
2022-08-17T10:27:57.368Z,37.15
2022-08-17T10:30:28.588Z,37.00
2022-08-17T10:33:15.560Z,38.33
2022-08-17T10:35:48.134Z,37.85
2022-08-17T10:38:25.669Z,36.12
2022-08-17T10:40:53.418Z,36.38
2022-08-17T10:43:39.086Z,37.56
2022-08-17T10:47:01.660Z,37.37
2022-08-17T10:49:56.168Z,36.30
2022-08-17T10:52:24.815Z,36.11
2022-08-17T10:54:58.106Z,36.45
2022-08-17T10:57:32.426Z,38.17
2022-08-17T11:00:15.869Z,37.61
2022-08-17T11:02:50.341Z,37.22
2022-08-17T11:05:43.849Z,37.86
2022-08-17T11:08:38.585Z,37.19
2022-08-17T11:11:42.195Z,36.41
2022-08-17T11:14:20.615Z,37.95
2022-08-17T11:17:14.865Z,37.23
2022-08-17T11:20:00.880Z,37.19
2022-08-17T11:22:52.898Z,37.66
2022-08-17T11:25:34.086Z,37.71
2022-08-17T11:28:38.632Z,38.62
2022-08-17T11:31:37.833Z,38.44
2022-08-17T11:34:19.364Z,38.35
2022-08-17T11:37:08.221Z,37.07
2022-08-17T11:39:49.681Z,38.07
2022-08-17T11:42:40.363Z,39.29
2022-08-17T11:45:32.531Z,38.43
2022-08-17T11:48:37.369Z,39.07
2022-08-17T11:51:46.814Z,38.58
2022-08-17T11:54:34.415Z,39.18
2022-08-17T11:57:27.403Z,39.55
2022-08-17T11:59:59.378Z,39.85
2022-08-17T12:02:31.757Z,40.14
2022-08-17T12:05:13.194Z,39.72
2022-08-17T12:07:52.175Z,40.29
2022-08-17T12:10:30.796Z,39.80
2022-08-17T12:13:10.516Z,40.05
2022-08-17T12:15:48.851Z,39.78
2022-08-17T12:18:33.830Z,40.41
2022-08-17T12:21:22.748Z,39.38
2022-08-17T12:24:23.043Z,40.15
2022-08-17T12:26:54.333Z,40.42
2022-08-17T12:29:35.796Z,41.69
2022-08-17T12:32:13.207Z,40.25
2022-08-17T12:34:43.914Z,42.01
2022-08-17T12:37:25.233Z,40.72
2022-08-17T12:40:02.628Z,41.07
2022-08-17T12:42:39.415Z,41.64
2022-08-17T12:45:21.222Z,40.45
2022-08-17T12:47:49.472Z,41.07
2022-08-17T12:50:28.539Z,40.45
2022-08-17T12:53:01.911Z,40.39
2022-08-17T12:55:37.307Z,41.16
2022-08-17T12:58:08.954Z,40.57
2022-08-17T13:00:49.353Z,41.29
2022-08-17T13:03:23.790Z,39.97
2022-08-17T13:06:09.282Z,39.47
2022-08-17T13:08:41.315Z,38.79
2022-08-17T13:11:20.374Z,37.99
2022-08-17T13:13:58.470Z,39.18
2022-08-17T13:16:33.593Z,39.50
2022-08-17T13:19:08.854Z,40.71
2022-08-17T13:21:38.248Z,39.57
2022-08-17T13:24:12.286Z,39.64
2022-08-17T13:26:49.110Z,38.55
2022-08-17T13:29:24.276Z,37.92
2022-08-17T13:32:15.589Z,39.03
2022-08-17T13:35:13.829Z,38.97
2022-08-17T13:38:11.758Z,38.65
2022-08-17T13:40:50.322Z,37.75
2022-08-17T13:43:37.761Z,37.71
2022-08-17T13:46:21.317Z,37.19
2022-08-17T13:49:21.119Z,37.42
2022-08-17T13:51:50.368Z,38.85
2022-08-17T13:54:20.738Z,39.00
2022-08-17T13:57:38.028Z,37.57
2022-08-17T14:00:18.868Z,38.64
2022-08-17T14:02:46.893Z,37.87
2022-08-17T14:05:14.918Z,37.06
2022-08-17T14:07:42.834Z,37.45
2022-08-17T14:10:15.557Z,39.47
2022-08-17T14:12:45.255Z,37.15
2022-08-17T14:15:16.540Z,39.87
2022-08-17T14:17:44.541Z,38.21
2022-08-17T14:20:13.607Z,38.35
2022-08-17T14:22:51.361Z,38.11
2022-08-17T14:25:25.245Z,38.28
2022-08-17T14:27:54.257Z,38.15
2022-08-17T14:30:25.825Z,38.83
2022-08-17T14:32:56.749Z,38.99
2022-08-17T14:35:25.328Z,40.35
2022-08-17T14:37:53.691Z,39.22
2022-08-17T14:40:25.080Z,37.92
2022-08-17T14:42:55.337Z,37.50
2022-08-17T14:45:29.628Z,38.60
2022-08-17T14:48:04.325Z,39.04
2022-08-17T14:50:35.396Z,39.08
2022-08-17T14:53:06.497Z,39.55
2022-08-17T14:55:35.773Z,40.42
2022-08-17T14:58:04.295Z,39.70
2022-08-17T15:00:33.284Z,41.45
2022-08-17T15:03:02.381Z,40.10
2022-08-17T15:05:34.740Z,40.89
2022-08-17T15:08:03.714Z,40.30
2022-08-17T15:10:32.858Z,38.87
2022-08-17T15:13:02.289Z,40.28
2022-08-17T15:15:30.481Z,39.27
2022-08-17T15:18:00.068Z,38.81
2022-08-17T15:20:29.962Z,39.25
2022-08-17T15:22:59.563Z,38.71
2022-08-17T15:25:30.011Z,39.01
2022-08-17T15:27:58.964Z,39.35
2022-08-17T15:30:27.472Z,40.48
2022-08-17T15:32:57.826Z,40.91
2022-08-17T15:35:29.979Z,40.46
2022-08-17T15:38:06.287Z,39.20
2022-08-17T15:40:41.950Z,40.00
2022-08-17T15:43:13.838Z,38.89
2022-08-17T15:45:42.252Z,39.83
2022-08-17T15:48:10.994Z,39.53
2022-08-17T15:50:39.015Z,39.91
2022-08-17T15:53:07.243Z,40.48
2022-08-17T15:55:36.822Z,40.10
2022-08-17T15:58:04.959Z,40.92
2022-08-17T16:00:42.015Z,40.43
2022-08-17T16:03:59.293Z,39.51
2022-08-17T16:06:11.582Z,40.03
2022-08-17T16:08:44.008Z,41.04
2022-08-17T16:11:16.867Z,40.98
2022-08-17T16:13:47.392Z,39.87
2022-08-17T16:16:23.855Z,40.19
2022-08-17T16:18:53.702Z,39.76
2022-08-17T16:21:26.972Z,39.82
2022-08-17T16:23:58.596Z,40.97
2022-08-17T16:26:28.591Z,40.55
2022-08-17T16:28:58.517Z,40.50
2022-08-17T16:31:26.631Z,40.47
2022-08-17T16:34:17.353Z,40.59
2022-08-17T16:36:54.869Z,40.06
2022-08-17T16:39:26.823Z,40.57
2022-08-17T16:41:56.241Z,41.44
2022-08-17T16:44:26.266Z,42.56
2022-08-17T16:46:56.619Z,43.75
2022-08-17T16:49:36.785Z,43.97
2022-08-17T16:52:10.685Z,44.21
2022-08-17T16:54:44.135Z,44.47
2022-08-17T16:57:14.084Z,44.20
2022-08-17T16:59:47.810Z,44.39
2022-08-17T17:02:37.181Z,44.48
2022-08-17T17:05:43.060Z,45.03
2022-08-17T17:08:40.729Z,44.60
2022-08-17T17:11:20.781Z,44.97
2022-08-17T17:14:02.193Z,44.60
2022-08-17T17:16:57.811Z,44.94
2022-08-17T17:19:41.469Z,44.99
2022-08-17T17:22:25.383Z,44.88
2022-08-17T17:25:14.421Z,44.47
2022-08-17T17:28:08.181Z,44.52
2022-08-17T17:31:03.035Z,43.78
2022-08-17T17:33:40.552Z,43.79
2022-08-17T17:36:22.919Z,43.99
2022-08-17T17:38:54.712Z,43.52
2022-08-17T17:41:35.251Z,45.48
2022-08-17T17:44:11.102Z,47.26
2022-08-17T17:46:43.906Z,49.50
2022-08-17T17:49:14.407Z,51.17
2022-08-17T17:52:10.927Z,51.76
2022-08-17T17:54:56.056Z,53.05
2022-08-17T17:57:45.190Z,53.71
2022-08-17T18:00:23.733Z,53.39
2022-08-17T18:03:06.576Z,53.52
2022-08-17T18:05:37.364Z,54.87
2022-08-17T18:08:34.925Z,59.89
2022-08-17T18:11:24.194Z,63.54
2022-08-17T18:14:17.443Z,64.86
2022-08-17T18:16:46.569Z,68.86
2022-08-17T18:19:20.256Z,69.46
2022-08-17T18:21:54.777Z,70.18
2022-08-17T18:24:34.893Z,71.54
2022-08-17T18:27:08.670Z,72.71
2022-08-17T18:29:47.271Z,72.76
2022-08-17T18:32:33.925Z,73.40
2022-08-17T18:35:16.490Z,72.06
2022-08-17T18:37:47.731Z,72.62
2022-08-17T18:40:21.438Z,73.78
2022-08-17T18:42:55.125Z,73.60
2022-08-17T18:45:51.305Z,74.36
2022-08-17T18:48:24.530Z,74.69
2022-08-17T18:50:54.869Z,75.43
2022-08-17T18:53:39.482Z,74.77
2022-08-17T18:56:17.725Z,76.81
2022-08-17T18:59:05.948Z,76.26
2022-08-17T19:02:03.305Z,76.43
2022-08-17T19:04:42.342Z,75.65
2022-08-17T19:07:33.332Z,74.25
2022-08-17T19:10:28.986Z,72.91
2022-08-17T19:13:12.614Z,73.56
2022-08-17T19:16:12.286Z,73.30
2022-08-17T19:18:39.524Z,72.29
2022-08-17T19:21:15.379Z,72.14
2022-08-17T19:23:53.685Z,70.34
2022-08-17T19:26:51.007Z,70.41
2022-08-17T19:29:22.419Z,70.18
2022-08-17T19:31:50.676Z,70.66
2022-08-17T19:34:33.175Z,69.59
2022-08-17T19:37:10.923Z,69.22
2022-08-17T19:39:47.534Z,68.57
2022-08-17T19:42:19.843Z,68.40
2022-08-17T19:44:59.732Z,68.61
2022-08-17T19:48:04.987Z,68.25
2022-08-17T19:50:41.668Z,67.74
2022-08-17T19:54:04.261Z,67.44
2022-08-17T19:56:55.697Z,67.92
2022-08-17T19:59:39.687Z,68.23
2022-08-17T20:02:41.601Z,68.77
2022-08-17T20:05:21.922Z,67.53
2022-08-17T20:08:05.435Z,67.03
2022-08-17T20:10:55.079Z,67.41
2022-08-17T20:13:45.644Z,67.61
2022-08-17T20:16:13.714Z,67.77
2022-08-17T20:19:20.092Z,67.63
2022-08-17T20:22:08.429Z,67.79
2022-08-17T20:24:40.048Z,68.21
2022-08-17T20:27:19.860Z,68.41
2022-08-17T20:30:11.400Z,67.50
2022-08-17T20:32:52.098Z,66.71
2022-08-17T20:35:32.800Z,66.02
2022-08-17T20:38:12.944Z,65.33
2022-08-17T20:41:01.229Z,65.01
2022-08-17T20:43:34.960Z,64.90
2022-08-17T20:46:37.013Z,65.00
2022-08-17T20:49:26.232Z,64.45
2022-08-17T20:52:09.805Z,64.29
2022-08-17T20:54:53.336Z,64.83
2022-08-17T20:57:50.472Z,64.55
2022-08-17T21:00:27.985Z,65.40
2022-08-17T21:03:23.090Z,64.20
2022-08-17T21:05:57.336Z,64.32
2022-08-17T21:08:33.461Z,65.26
2022-08-17T21:12:03.104Z,65.25
2022-08-17T21:14:31.803Z,65.15
2022-08-17T21:17:49.113Z,65.97
2022-08-17T21:20:32.449Z,65.67
2022-08-17T21:23:32.111Z,66.92
2022-08-17T21:26:17.816Z,66.67
2022-08-17T21:29:01.435Z,66.96
2022-08-17T21:31:40.993Z,66.24
2022-08-17T21:34:23.895Z,66.16
2022-08-17T21:36:51.860Z,66.43
2022-08-17T21:39:30.694Z,66.31
2022-08-17T21:42:01.820Z,67.09
2022-08-17T21:44:37.053Z,66.23
2022-08-17T21:47:13.915Z,66.71
2022-08-17T21:49:41.846Z,67.09
2022-08-17T21:52:17.749Z,67.09
2022-08-17T21:54:53.054Z,67.86
2022-08-17T21:57:27.668Z,67.84
2022-08-17T21:59:59.808Z,68.20
2022-08-17T22:02:33.968Z,67.85
2022-08-17T22:05:10.762Z,69.11
2022-08-17T22:07:46.555Z,69.05
2022-08-17T22:10:37.642Z,69.33
2022-08-17T22:13:16.498Z,69.45
2022-08-17T22:15:48.665Z,70.20
2022-08-17T22:18:28.981Z,69.94
2022-08-17T22:21:01.869Z,69.47
2022-08-17T22:23:52.715Z,69.79
2022-08-17T22:26:23.753Z,70.83
2022-08-17T22:28:55.720Z,70.59
2022-08-17T22:31:26.978Z,70.00
2022-08-17T22:34:00.556Z,70.57
2022-08-17T22:36:33.800Z,71.35
2022-08-17T22:39:23.127Z,71.91
2022-08-17T22:41:52.297Z,71.59
2022-08-17T22:44:48.777Z,71.20
2022-08-17T22:47:17.177Z,71.63
2022-08-17T22:49:58.033Z,70.37
2022-08-17T22:53:00.882Z,69.98
2022-08-17T22:55:50.092Z,69.60
2022-08-17T22:58:40.995Z,70.02
2022-08-17T23:01:28.493Z,69.24
2022-08-17T23:04:05.979Z,69.12
2022-08-17T23:06:35.894Z,69.53
2022-08-17T23:09:06.044Z,69.45
2022-08-17T23:11:48.632Z,69.40
2022-08-17T23:14:20.118Z,70.34
2022-08-17T23:16:50.450Z,70.24
2022-08-17T23:19:21.150Z,69.60
2022-08-17T23:21:53.936Z,69.94
2022-08-17T23:24:26.351Z,70.13
2022-08-17T23:26:57.386Z,70.51
2022-08-17T23:29:26.246Z,70.10
2022-08-17T23:31:55.214Z,70.94
2022-08-17T23:34:24.426Z,70.52
2022-08-17T23:36:53.323Z,70.60
2022-08-17T23:39:24.583Z,71.25
2022-08-17T23:42:00.586Z,71.36
2022-08-17T23:44:29.095Z,70.91
2022-08-17T23:46:57.710Z,71.78
2022-08-17T23:49:25.778Z,71.98
2022-08-17T23:51:56.850Z,71.35
2022-08-17T23:54:28.090Z,71.33
2022-08-17T23:56:55.979Z,71.83
2022-08-17T23:59:24.037Z,71.53
